Time,TemperatureF,DewpointF,PressureIn,WindDirection,WindDirectionDegrees,WindSpeedMPH,WindSpeedGustMPH,Humidity,HourlyPrecipIn,Conditions,Clouds,dailyrainin,SoftwareType,DateUTC
2013-11-13 00:05:00,23.0,11.2,30.03,WSW,256,19.0,19.0,60,0.00,,,0.00,Wunderground v.1.15,2013-11-13 05:05:00,
2013-11-13 00:15:00,23.0,10.8,30.03,WNW,289,15.0,19.0,59,0.00,,,0.00,Wunderground v.1.15,2013-11-13 05:15:00,
2013-11-13 00:26:00,23.3,9.9,30.03,WNW,284,18.0,18.0,56,0.00,,,0.00,Wunderground v.1.15,2013-11-13 05:26:00,
2013-11-13 00:55:00,22.7,10.9,30.05,WNW,288,13.0,13.0,60,0.00,,,0.00,Wunderground v.1.15,2013-11-13 05:55:00,
2013-11-13 01:06:00,22.4,11.0,30.05,NW,321,11.0,11.0,61,0.00,,,0.00,Wunderground v.1.15,2013-11-13 06:06:00,
2013-11-13 01:35:00,22.2,10.0,30.06,WNW,292,14.0,14.0,59,0.00,,,0.00,Wunderground v.1.15,2013-11-13 06:35:00,
2013-11-13 01:46:00,22.2,9.3,30.06,WNW,287,14.0,16.0,57,0.00,,,0.00,Wunderground v.1.15,2013-11-13 06:46:00,
2013-11-13 02:05:00,21.6,10.9,30.06,WNW,288,15.0,15.0,63,0.00,,,0.00,Wunderground v.1.15,2013-11-13 07:05:00,
2013-11-13 02:16:00,21.6,9.5,30.05,WNW,299,14.0,15.0,59,0.00,,,0.00,Wunderground v.1.15,2013-11-13 07:16:00,
2013-11-13 02:45:00,21.0,9.3,30.05,West,279,10.0,11.0,60,0.00,,,0.00,Wunderground v.1.15,2013-11-13 07:45:00,
2013-11-13 02:55:00,20.8,8.7,30.05,WNW,301,9.0,9.0,59,0.00,,,0.00,Wunderground v.1.15,2013-11-13 07:55:00,
2013-11-13 03:35:00,20.5,9.2,30.06,WNW,292,11.0,16.0,61,0.00,,,0.00,Wunderground v.1.15,2013-11-13 08:35:00,
2013-11-13 03:46:00,20.3,9.3,30.06,WNW,294,11.0,11.0,62,0.00,,,0.00,Wunderground v.1.15,2013-11-13 08:46:00,
2013-11-13 03:56:00,20.2,9.2,30.06,WNW,298,8.0,13.0,62,0.00,,,0.00,Wunderground v.1.15,2013-11-13 08:56:00,
2013-11-13 04:35:00,20.0,8.7,30.08,West,279,8.0,12.0,61,0.00,,,0.00,Wunderground v.1.15,2013-11-13 09:35:00,
2013-11-13 04:46:00,20.0,8.7,30.08,West,271,11.0,11.0,61,0.00,,,0.00,Wunderground v.1.15,2013-11-13 09:46:00,
2013-11-13 05:05:00,20.0,8.3,30.09,WNW,288,9.0,9.0,60,0.00,,,0.00,Wunderground v.1.15,2013-11-13 10:05:00,
2013-11-13 05:16:00,20.2,8.1,30.10,West,268,8.0,8.0,59,0.00,,,0.00,Wunderground v.1.15,2013-11-13 10:16:00,
2013-11-13 05:26:00,20.3,7.9,30.10,WNW,296,10.0,10.0,58,0.00,,,0.00,Wunderground v.1.15,2013-11-13 10:26:00,
2013-11-13 06:05:00,19.2,9.0,30.11,West,273,8.0,9.0,64,0.00,,,0.00,Wunderground v.1.15,2013-11-13 11:05:00,
2013-11-13 06:16:00,19.2,8.7,30.12,NNW,327,7.0,7.0,63,0.00,,,0.00,Wunderground v.1.15,2013-11-13 11:16:00,
2013-11-13 06:26:00,19.1,8.6,30.12,NW,311,5.0,6.0,63,0.00,,,0.00,Wunderground v.1.15,2013-11-13 11:26:00,
2013-11-13 07:36:00,20.3,7.9,30.15,SW,229,4.0,5.0,58,0.00,,,0.00,Wunderground v.1.15,2013-11-13 12:36:00,
2013-11-13 08:05:00,21.1,7.4,30.15,WSW,245,5.0,5.0,55,0.00,,,0.00,Wunderground v.1.15,2013-11-13 13:05:00,
2013-11-13 08:15:00,21.6,7.5,30.15,WSW,252,3.0,3.0,54,0.00,,,0.00,Wunderground v.1.15,2013-11-13 13:15:00,
2013-11-13 08:26:00,22.4,8.2,30.15,NW,319,5.0,8.0,54,0.00,,,0.00,Wunderground v.1.15,2013-11-13 13:26:00,
2013-11-13 09:06:00,23.5,8.4,30.16,NNW,327,6.0,10.0,52,0.00,,,0.00,Wunderground v.1.15,2013-11-13 14:06:00,
2013-11-13 09:16:00,23.5,8.4,30.15,WSW,240,8.0,11.0,52,0.00,,,0.00,Wunderground v.1.15,2013-11-13 14:16:00,
2013-11-13 10:45:00,25.3,9.2,30.15,WNW,301,8.0,8.0,50,0.00,,,0.00,Wunderground v.1.15,2013-11-13 15:45:00,
2013-11-13 10:56:00,25.6,9.1,30.15,NW,317,9.0,10.0,49,0.00,,,0.00,Wunderground v.1.15,2013-11-13 15:56:00,
2013-11-13 11:15:00,25.0,8.5,30.14,NW,326,11.0,11.0,49,0.00,,,0.00,Wunderground v.1.15,2013-11-13 16:15:00,
2013-11-13 11:26:00,25.4,8.4,30.14,NNW,334,10.0,11.0,48,0.00,,,0.00,Wunderground v.1.15,2013-11-13 16:26:00,
2013-11-13 11:35:00,26.0,9.0,30.13,West,265,8.0,11.0,48,0.00,,,0.00,Wunderground v.1.15,2013-11-13 16:35:00,
2013-11-13 11:46:00,26.3,9.2,30.13,WNW,294,8.0,10.0,48,0.00,,,0.00,Wunderground v.1.15,2013-11-13 16:46:00,
2013-11-13 12:15:00,24.4,10.1,30.12,West,271,11.0,11.0,54,0.00,,,0.00,Wunderground v.1.15,2013-11-13 17:15:00,
2013-11-13 12:45:00,25.4,9.3,30.11,WNW,303,12.0,13.0,50,0.00,,,0.00,Wunderground v.1.15,2013-11-13 17:45:00,
2013-11-13 12:56:00,25.8,9.7,30.11,WNW,291,11.0,11.0,50,0.00,,,0.00,Wunderground v.1.15,2013-11-13 17:56:00,
2013-11-13 13:05:00,25.8,7.8,30.10,WNW,302,12.0,15.0,46,0.00,,,0.00,Wunderground v.1.15,2013-11-13 18:05:00,
2013-11-13 13:16:00,25.8,7.8,30.10,NW,313,13.0,16.0,46,0.00,,,0.00,Wunderground v.1.15,2013-11-13 18:16:00,
2013-11-13 13:35:00,26.3,7.8,30.09,NW,311,11.0,11.0,45,0.00,,,0.00,Wunderground v.1.15,2013-11-13 18:35:00,
2013-11-13 13:46:00,26.0,7.0,30.09,West,269,14.0,14.0,44,0.00,,,0.00,Wunderground v.1.15,2013-11-13 18:46:00,
2013-11-13 14:05:00,26.6,7.1,30.09,WNW,303,13.0,18.0,43,0.00,,,0.00,Wunderground v.1.15,2013-11-13 19:05:00,
2013-11-13 14:16:00,26.7,6.6,30.09,West,275,15.0,15.0,42,0.00,,,0.00,Wunderground v.1.15,2013-11-13 19:16:00,
2013-11-13 14:35:00,26.7,7.2,30.09,NW,304,14.0,17.0,43,0.00,,,0.00,Wunderground v.1.15,2013-11-13 19:35:00,
2013-11-13 14:45:00,26.9,7.4,30.09,West,266,14.0,17.0,43,0.00,,,0.00,Wunderground v.1.15,2013-11-13 19:45:00,
2013-11-13 14:56:00,26.6,7.1,30.09,WNW,294,15.0,20.0,43,0.00,,,0.00,Wunderground v.1.15,2013-11-13 19:56:00,
2013-11-13 15:15:00,26.7,7.7,30.10,WNW,284,13.0,14.0,44,0.00,,,0.00,Wunderground v.1.15,2013-11-13 20:15:00,
2013-11-13 15:26:00,26.4,6.9,30.10,WNW,288,13.0,13.0,43,0.00,,,0.00,Wunderground v.1.15,2013-11-13 20:26:00,
2013-11-13 15:55:00,25.4,7.5,30.09,West,279,15.0,15.0,46,0.00,,,0.00,Wunderground v.1.15,2013-11-13 20:55:00,
2013-11-13 16:36:00,25.0,7.6,30.11,WNW,286,13.0,13.0,47,0.00,,,0.00,Wunderground v.1.15,2013-11-13 21:36:00,
2013-11-13 16:46:00,25.1,8.1,30.10,NW,305,10.0,10.0,48,0.00,,,0.00,Wunderground v.1.15,2013-11-13 21:46:00,
2013-11-13 16:55:00,25.4,9.3,30.10,WNW,295,14.0,14.0,50,0.00,,,0.00,Wunderground v.1.15,2013-11-13 21:55:00,
2013-11-13 17:35:00,25.3,9.2,30.10,NW,317,14.0,14.0,50,0.00,,,0.00,Wunderground v.1.15,2013-11-13 22:35:00,
2013-11-13 17:46:00,25.6,9.1,30.09,WNW,283,14.0,27.0,49,0.00,,,0.00,Wunderground v.1.15,2013-11-13 22:46:00,
2013-11-13 18:05:00,25.7,9.2,30.10,NNW,346,11.0,20.0,49,0.00,,,0.00,Wunderground v.1.15,2013-11-13 23:05:00,
2013-11-13 18:16:00,26.1,10.0,30.09,NW,308,16.0,16.0,50,0.00,,,0.00,Wunderground v.1.15,2013-11-13 23:16:00,
2013-11-13 18:35:00,26.1,10.4,30.09,WNW,288,13.0,18.0,51,0.00,,,0.00,Wunderground v.1.15,2013-11-13 23:35:00,
2013-11-13 18:46:00,26.1,10.9,30.08,NW,313,13.0,13.0,52,0.00,,,0.00,Wunderground v.1.15,2013-11-13 23:46:00,
2013-11-13 19:06:00,26.7,11.8,30.08,NW,323,11.0,19.0,53,0.00,,,0.00,Wunderground v.1.15,2013-11-14 00:06:00,
2013-11-13 19:16:00,26.6,12.6,30.08,WNW,290,8.0,10.0,55,0.00,,,0.00,Wunderground v.1.15,2013-11-14 00:16:00,
2013-11-13 19:35:00,27.3,13.7,30.08,WSW,240,8.0,8.0,56,0.00,,,0.00,Wunderground v.1.15,2013-11-14 00:35:00,
2013-11-13 19:46:00,27.3,14.1,30.07,NW,304,4.0,7.0,57,0.00,,,0.00,Wunderground v.1.15,2013-11-14 00:46:00,
2013-11-13 19:56:00,27.6,14.7,30.07,West,281,6.0,6.0,58,0.00,,,0.00,Wunderground v.1.15,2013-11-14 00:56:00,
2013-11-13 20:06:00,27.8,14.9,30.07,WNW,291,5.0,5.0,58,0.00,,,0.00,Wunderground v.1.15,2013-11-14 01:06:00,
2013-11-13 20:16:00,27.6,14.7,30.07,SSE,153,2.0,2.0,58,0.00,,,0.00,Wunderground v.1.15,2013-11-14 01:16:00,
2013-11-13 20:36:00,27.9,15.0,30.08,West,265,4.0,7.0,58,0.00,,,0.00,Wunderground v.1.15,2013-11-14 01:36:00,
2013-11-13 20:46:00,27.9,14.6,30.07,SSW,200,5.0,5.0,57,0.00,,,0.00,Wunderground v.1.15,2013-11-14 01:46:00,
2013-11-13 21:05:00,27.5,15.0,30.06,West,264,2.0,3.0,59,0.00,,,0.00,Wunderground v.1.15,2013-11-14 02:05:00,
2013-11-13 21:16:00,27.3,15.6,30.04,West,277,5.0,7.0,61,0.00,,,0.00,Wunderground v.1.15,2013-11-14 02:16:00,
2013-11-13 21:36:00,27.5,15.8,30.05,WSW,258,4.0,4.0,61,0.00,,,0.00,Wunderground v.1.15,2013-11-14 02:36:00,
2013-11-13 21:46:00,27.8,15.7,30.04,WNW,288,5.0,10.0,60,0.00,,,0.00,Wunderground v.1.15,2013-11-14 02:46:00,
2013-11-13 22:06:00,27.6,15.9,30.03,WSW,258,4.0,4.0,61,0.00,,,0.00,Wunderground v.1.15,2013-11-14 03:06:00,
2013-11-13 22:16:00,27.6,15.5,30.03,SW,236,3.0,5.0,60,0.00,,,0.00,Wunderground v.1.15,2013-11-14 03:16:00,
2013-11-13 22:36:00,27.8,16.1,30.02,WSW,248,3.0,3.0,61,0.00,,,0.00,Wunderground v.1.15,2013-11-14 03:36:00,
2013-11-13 22:46:00,28.4,16.3,30.02,SW,230,4.0,4.0,60,0.00,,,0.00,Wunderground v.1.15,2013-11-14 03:46:00,
2013-11-13 23:05:00,28.7,16.9,30.01,SSE,168,3.0,4.0,61,0.00,,,0.00,Wunderground v.1.15,2013-11-14 04:05:00,
2013-11-13 23:16:00,28.7,16.6,30.00,SSE,158,3.0,3.0,60,0.00,,,0.00,Wunderground v.1.15,2013-11-14 04:16:00,
2013-11-13 23:36:00,27.9,16.6,29.99,South,186,2.0,3.0,62,0.00,,,0.00,Wunderground v.1.15,2013-11-14 04:36:00,
2013-11-13 23:55:00,28.7,16.6,29.98,SSW,209,2.0,2.0,60,0.00,,,0.00,Wunderground v.1.15,2013-11-14 04:55:00,